Terminal Aerodrome Forecast
Issued by NWS

Home | Current Version | Previous Version | Text Only | Print | Product List | Glossary On
Versions: 1 2 3 4 5 6 7 8 9 10 11 12 13 14 15 16
000
FTUS42 KTBW 202300
TAFPIE
TAF
KPIE 202333Z 2100/2124 32005KT P6SM SCT035 BKN050
     FM210300 VRB03KT P6SM SCT050 BKN150
     FM211400 10005KT P6SM SCT050 BKN150
     FM212000 30007KT P6SM SCT035 BKN150=

USA.gov is the U.S. government's official web portal to all federal, state and local government web resources and services.